VA77 weather

Hanover Air Park
Mechanicsville, Virginia, United States

Public forecast

Using degrees Fahrenheit for public forecast. Weather courtesy of forecast.io.

METAR (pilot weather report)

Closest report is Hanover County Municipal Airport, 3.0 nm (5.5 km) WNW. Retrieved 2019/06/18 09:54 UTC (46 minutes ago):

KOFP 180954Z AUTO 19005KT 10SM CLR 23/18 A2997 RMK AO2 SLP147 T02330183

TAF (pilot weather forecast)

Closest forecast is Richmond International Airport, 11.7 nm (21.6 km) SSE. Retrieved 2019/06/18 06:51 UTC (4 hours ago):

TAF KRIC 180548Z 1806/1906 20005KT P6SM BKN250 FM181400 22010KT P6SM SCT050 FM181900 23008KT P6SM VCSH BKN050 FM190000 10005KT 5SM SHRA BR OVC030